sensor_id;sensor_type;location;lat;lon;timestamp;temperature;humidity
68251;DHT22;55066;51.560;4.642;2024-01-16T00:01:37;0.63;99.99
68251;DHT22;55066;51.560;4.642;2024-01-16T00:04:03;0.66;99.99
68251;DHT22;55066;51.560;4.642;2024-01-16T00:06:29;0.63;99.99
68251;DHT22;55066;51.560;4.642;2024-01-16T00:08:54;0.66;99.99
68251;DHT22;55066;51.560;4.642;2024-01-16T00:11:20;0.56;99.99
68251;DHT22;55066;51.560;4.642;2024-01-16T00:13:45;0.60;99.99
68251;DHT22;55066;51.560;4.642;2024-01-16T00:16:10;0.76;99.99
68251;DHT22;55066;51.560;4.642;2024-01-16T00:18:36;0.69;99.99
68251;DHT22;55066;51.560;4.642;2024-01-16T00:21:01;0.63;99.99
68251;DHT22;55066;51.560;4.642;2024-01-16T00:23:30;0.53;99.99
68251;DHT22;55066;51.560;4.642;2024-01-16T00:25:57;0.56;99.99
68251;DHT22;55066;51.560;4.642;2024-01-16T00:28:23;0.50;99.99
68251;DHT22;55066;51.560;4.642;2024-01-16T00:30:48;0.49;99.99
68251;DHT22;55066;51.560;4.642;2024-01-16T00:33:14;0.50;99.99
68251;DHT22;55066;51.560;4.642;2024-01-16T00:35:39;0.50;99.99
68251;DHT22;55066;51.560;4.642;2024-01-16T00:38:05;0.46;99.99
68251;DHT22;55066;51.560;4.642;2024-01-16T00:40:30;0.41;99.99
68251;DHT22;55066;51.560;4.642;2024-01-16T00:42:56;0.48;99.99
68251;DHT22;55066;51.560;4.642;2024-01-16T00:45:21;0.50;99.99
68251;DHT22;55066;51.560;4.642;2024-01-16T00:47:47;0.38;99.99
68251;DHT22;55066;51.560;4.642;2024-01-16T00:50:13;0.35;99.99
68251;DHT22;55066;51.560;4.642;2024-01-16T00:52:38;0.29;99.99
68251;DHT22;55066;51.560;4.642;2024-01-16T00:55:04;0.30;99.99
68251;DHT22;55066;51.560;4.642;2024-01-16T00:57:30;0.30;99.99
68251;DHT22;55066;51.560;4.642;2024-01-16T00:59:56;0.32;99.99
68251;DHT22;55066;51.560;4.642;2024-01-16T01:02:21;0.36;99.99
68251;DHT22;55066;51.560;4.642;2024-01-16T01:04:47;0.39;99.99
68251;DHT22;55066;51.560;4.642;2024-01-16T01:07:15;0.38;99.99
68251;DHT22;55066;51.560;4.642;2024-01-16T01:09:41;0.35;99.99
68251;DHT22;55066;51.560;4.642;2024-01-16T01:12:07;0.32;99.99
68251;DHT22;55066;51.560;4.642;2024-01-16T01:14:33;0.33;99.99
68251;DHT22;55066;51.560;4.642;2024-01-16T01:16:58;0.35;99.99
68251;DHT22;55066;51.560;4.642;2024-01-16T01:19:24;0.36;99.99
68251;DHT22;55066;51.560;4.642;2024-01-16T01:21:49;0.39;99.99
68251;DHT22;55066;51.560;4.642;2024-01-16T01:24:15;0.46;99.99
68251;DHT22;55066;51.560;4.642;2024-01-16T01:26:43;0.53;99.99
68251;DHT22;55066;51.560;4.642;2024-01-16T01:29:09;0.42;99.99
68251;DHT22;55066;51.560;4.642;2024-01-16T01:31:35;0.43;99.99
68251;DHT22;55066;51.560;4.642;2024-01-16T01:34:00;0.36;99.99
68251;DHT22;55066;51.560;4.642;2024-01-16T01:36:26;0.35;99.99
68251;DHT22;55066;51.560;4.642;2024-01-16T01:38:52;0.29;99.99
68251;DHT22;55066;51.560;4.642;2024-01-16T01:41:17;0.25;99.99
68251;DHT22;55066;51.560;4.642;2024-01-16T01:43:43;0.24;99.99
68251;DHT22;55066;51.560;4.642;2024-01-16T01:46:17;0.15;99.99
68251;DHT22;55066;51.560;4.642;2024-01-16T01:48:44;0.11;99.99
68251;DHT22;55066;51.560;4.642;2024-01-16T01:51:12;0.09;99.99
68251;DHT22;55066;51.560;4.642;2024-01-16T01:53:39;0.09;99.99
68251;DHT22;55066;51.560;4.642;2024-01-16T01:56:10;0.05;99.99
68251;DHT22;55066;51.560;4.642;2024-01-16T01:58:37;0.01;99.99
68251;DHT22;55066;51.560;4.642;2024-01-16T02:01:05;-0.02;99.99
68251;DHT22;55066;51.560;4.642;2024-01-16T02:03:37;0.04;99.99
68251;DHT22;55066;51.560;4.642;2024-01-16T02:06:04;0.01;99.99
68251;DHT22;55066;51.560;4.642;2024-01-16T02:08:30;0.01;99.99
68251;DHT22;55066;51.560;4.642;2024-01-16T02:10:56;-0.03;99.99
68251;DHT22;55066;51.560;4.642;2024-01-16T02:13:21;-0.01;99.99
68251;DHT22;55066;51.560;4.642;2024-01-16T02:15:51;-0.02;99.99
68251;DHT22;55066;51.560;4.642;2024-01-16T02:18:17;-0.06;99.99
68251;DHT22;55066;51.560;4.642;2024-01-16T02:20:47;-0.02;99.99
68251;DHT22;55066;51.560;4.642;2024-01-16T02:23:14;-0.06;99.99
68251;DHT22;55066;51.560;4.642;2024-01-16T02:25:43;-0.03;99.99
68251;DHT22;55066;51.560;4.642;2024-01-16T02:28:09;-0.05;99.99
68251;DHT22;55066;51.560;4.642;2024-01-16T02:30:34;-0.05;99.99
68251;DHT22;55066;51.560;4.642;2024-01-16T02:33:00;-0.01;99.99
68251;DHT22;55066;51.560;4.642;2024-01-16T02:35:25;-0.02;99.99
68251;DHT22;55066;51.560;4.642;2024-01-16T02:37:51;-0.02;99.99
68251;DHT22;55066;51.560;4.642;2024-01-16T02:40:16;-0.01;99.99
68251;DHT22;55066;51.560;4.642;2024-01-16T02:42:42;0.02;99.99
68251;DHT22;55066;51.560;4.642;2024-01-16T02:45:08;0.01;99.99
68251;DHT22;55066;51.560;4.642;2024-01-16T02:47:34;0.05;99.99
68251;DHT22;55066;51.560;4.642;2024-01-16T02:49:59;0.07;99.99
68251;DHT22;55066;51.560;4.642;2024-01-16T02:52:25;0.02;99.99
68251;DHT22;55066;51.560;4.642;2024-01-16T02:54:51;0.02;99.99
68251;DHT22;55066;51.560;4.642;2024-01-16T02:57:16;-0.01;99.99
68251;DHT22;55066;51.560;4.642;2024-01-16T02:59:45;0.02;99.99
68251;DHT22;55066;51.560;4.642;2024-01-16T03:02:10;-0.02;99.99
68251;DHT22;55066;51.560;4.642;2024-01-16T03:04:37;-0.02;99.99
68251;DHT22;55066;51.560;4.642;2024-01-16T03:07:02;-0.07;99.99
68251;DHT22;55066;51.560;4.642;2024-01-16T03:09:28;-0.09;99.99
68251;DHT22;55066;51.560;4.642;2024-01-16T03:11:53;-0.05;99.99
68251;DHT22;55066;51.560;4.642;2024-01-16T03:14:19;-0.03;99.99
68251;DHT22;55066;51.560;4.642;2024-01-16T03:16:44;-0.03;99.99
68251;DHT22;55066;51.560;4.642;2024-01-16T03:19:10;0.01;99.99
68251;DHT22;55066;51.560;4.642;2024-01-16T03:21:37;0.04;99.99
68251;DHT22;55066;51.560;4.642;2024-01-16T03:24:04;0.08;99.99
68251;DHT22;55066;51.560;4.642;2024-01-16T03:26:31;-0.06;99.99
68251;DHT22;55066;51.560;4.642;2024-01-16T03:28:57;-0.10;99.99
68251;DHT22;55066;51.560;4.642;2024-01-16T03:31:23;-0.09;99.99
68251;DHT22;55066;51.560;4.642;2024-01-16T03:33:49;-0.13;99.99
68251;DHT22;55066;51.560;4.642;2024-01-16T03:36:14;-0.10;99.99
68251;DHT22;55066;51.560;4.642;2024-01-16T03:38:42;-0.06;99.99
68251;DHT22;55066;51.560;4.642;2024-01-16T03:41:08;-0.13;99.99
68251;DHT22;55066;51.560;4.642;2024-01-16T03:43:35;-0.16;99.99
68251;DHT22;55066;51.560;4.642;2024-01-16T03:46:01;-0.12;99.99
68251;DHT22;55066;51.560;4.642;2024-01-16T03:48:27;-0.13;99.99
68251;DHT22;55066;51.560;4.642;2024-01-16T03:50:52;-0.19;99.99
68251;DHT22;55066;51.560;4.642;2024-01-16T03:53:20;-0.24;99.99
68251;DHT22;55066;51.560;4.642;2024-01-16T03:55:47;-0.20;99.99
68251;DHT22;55066;51.560;4.642;2024-01-16T03:58:12;-0.17;99.99
68251;DHT22;55066;51.560;4.642;2024-01-16T04:00:38;-0.13;99.99
68251;DHT22;55066;51.560;4.642;2024-01-16T04:03:03;-0.16;99.99
68251;DHT22;55066;51.560;4.642;2024-01-16T04:05:29;-0.14;99.99
68251;DHT22;55066;51.560;4.642;2024-01-16T04:07:56;-0.19;99.99
68251;DHT22;55066;51.560;4.642;2024-01-16T04:10:22;0.01;99.99
68251;DHT22;55066;51.560;4.642;2024-01-16T04:12:47;-0.09;99.99
68251;DHT22;55066;51.560;4.642;2024-01-16T04:15:13;-0.16;99.99
68251;DHT22;55066;51.560;4.642;2024-01-16T04:17:38;-0.14;99.99
68251;DHT22;55066;51.560;4.642;2024-01-16T04:20:05;-0.09;99.99
68251;DHT22;55066;51.560;4.642;2024-01-16T04:22:32;-0.07;99.99
68251;DHT22;55066;51.560;4.642;2024-01-16T04:24:57;-0.10;99.99
68251;DHT22;55066;51.560;4.642;2024-01-16T04:27:23;-0.01;99.99
68251;DHT22;55066;51.560;4.642;2024-01-16T04:29:50;-0.09;99.99
68251;DHT22;55066;51.560;4.642;2024-01-16T04:32:16;-0.17;99.99
68251;DHT22;55066;51.560;4.642;2024-01-16T04:34:41;0.01;99.99
68251;DHT22;55066;51.560;4.642;2024-01-16T04:37:07;-0.05;99.99
68251;DHT22;55066;51.560;4.642;2024-01-16T04:39:32;-0.07;99.99
68251;DHT22;55066;51.560;4.642;2024-01-16T04:41:58;-0.14;99.99
68251;DHT22;55066;51.560;4.642;2024-01-16T04:44:23;-0.16;99.99
68251;DHT22;55066;51.560;4.642;2024-01-16T04:46:49;-0.17;99.99
68251;DHT22;55066;51.560;4.642;2024-01-16T04:49:15;-0.16;99.99
68251;DHT22;55066;51.560;4.642;2024-01-16T04:51:40;-0.26;99.99
68251;DHT22;55066;51.560;4.642;2024-01-16T04:54:07;-0.19;99.99
68251;DHT22;55066;51.560;4.642;2024-01-16T04:56:32;-0.17;99.99
68251;DHT22;55066;51.560;4.642;2024-01-16T04:58:58;-0.29;99.99
68251;DHT22;55066;51.560;4.642;2024-01-16T05:01:23;-0.37;99.99
68251;DHT22;55066;51.560;4.642;2024-01-16T05:03:50;-0.40;99.99
68251;DHT22;55066;51.560;4.642;2024-01-16T05:06:16;-0.40;99.99
68251;DHT22;55066;51.560;4.642;2024-01-16T05:08:42;-0.45;99.99
68251;DHT22;55066;51.560;4.642;2024-01-16T05:11:08;-0.53;99.99
68251;DHT22;55066;51.560;4.642;2024-01-16T05:13:34;-0.54;99.99
68251;DHT22;55066;51.560;4.642;2024-01-16T05:16:00;-0.51;99.99
68251;DHT22;55066;51.560;4.642;2024-01-16T05:18:25;-0.47;99.99
68251;DHT22;55066;51.560;4.642;2024-01-16T05:20:51;-0.57;99.99
68251;DHT22;55066;51.560;4.642;2024-01-16T05:23:16;-0.60;99.99
68251;DHT22;55066;51.560;4.642;2024-01-16T05:25:43;-0.61;99.99
68251;DHT22;55066;51.560;4.642;2024-01-16T05:28:08;-0.62;99.99
68251;DHT22;55066;51.560;4.642;2024-01-16T05:30:34;-0.65;99.99
68251;DHT22;55066;51.560;4.642;2024-01-16T05:32:59;-0.60;99.99
68251;DHT22;55066;51.560;4.642;2024-01-16T05:35:29;-0.58;99.99
68251;DHT22;55066;51.560;4.642;2024-01-16T05:37:55;-0.62;99.99
68251;DHT22;55066;51.560;4.642;2024-01-16T05:40:21;-0.65;99.99
68251;DHT22;55066;51.560;4.642;2024-01-16T05:42:48;-0.67;99.99
68251;DHT22;55066;51.560;4.642;2024-01-16T05:45:15;-0.54;99.99
68251;DHT22;55066;51.560;4.642;2024-01-16T05:47:41;-0.57;99.99
68251;DHT22;55066;51.560;4.642;2024-01-16T05:50:07;-0.64;99.99
68251;DHT22;55066;51.560;4.642;2024-01-16T05:52:33;-0.69;99.99
68251;DHT22;55066;51.560;4.642;2024-01-16T05:54:58;-0.74;99.99
68251;DHT22;55066;51.560;4.642;2024-01-16T05:57:25;-0.68;99.99
68251;DHT22;55066;51.560;4.642;2024-01-16T05:59:51;-0.74;99.99
68251;DHT22;55066;51.560;4.642;2024-01-16T06:02:16;-0.69;99.99
68251;DHT22;55066;51.560;4.642;2024-01-16T06:04:42;-0.69;99.99
68251;DHT22;55066;51.560;4.642;2024-01-16T06:07:07;-0.71;99.99
68251;DHT22;55066;51.560;4.642;2024-01-16T06:09:37;-0.72;99.99
68251;DHT22;55066;51.560;4.642;2024-01-16T06:12:03;-0.72;99.99
68251;DHT22;55066;51.560;4.642;2024-01-16T06:14:29;-0.71;99.99
68251;DHT22;55066;51.560;4.642;2024-01-16T06:16:54;-0.71;99.99
68251;DHT22;55066;51.560;4.642;2024-01-16T06:19:20;-0.58;99.99
68251;DHT22;55066;51.560;4.642;2024-01-16T06:21:46;-0.64;99.99
68251;DHT22;55066;51.560;4.642;2024-01-16T06:24:11;-0.64;99.99
68251;DHT22;55066;51.560;4.642;2024-01-16T06:26:38;-0.64;99.99
68251;DHT22;55066;51.560;4.642;2024-01-16T06:29:04;-0.68;99.99
68251;DHT22;55066;51.560;4.642;2024-01-16T06:31:29;-0.68;99.99
68251;DHT22;55066;51.560;4.642;2024-01-16T06:33:55;-0.67;99.99
68251;DHT22;55066;51.560;4.642;2024-01-16T06:36:21;-0.71;99.99
68251;DHT22;55066;51.560;4.642;2024-01-16T06:38:48;-0.67;99.99
68251;DHT22;55066;51.560;4.642;2024-01-16T06:41:13;-0.69;99.99
68251;DHT22;55066;51.560;4.642;2024-01-16T06:43:39;-0.74;99.99
68251;DHT22;55066;51.560;4.642;2024-01-16T06:46:04;-0.79;99.99
68251;DHT22;55066;51.560;4.642;2024-01-16T06:48:30;-0.75;99.99
68251;DHT22;55066;51.560;4.642;2024-01-16T06:50:56;-0.81;99.99
68251;DHT22;55066;51.560;4.642;2024-01-16T06:53:21;-0.82;99.99
68251;DHT22;55066;51.560;4.642;2024-01-16T06:55:48;-0.84;99.99
68251;DHT22;55066;51.560;4.642;2024-01-16T06:58:14;-0.85;99.99
68251;DHT22;55066;51.560;4.642;2024-01-16T07:00:40;-0.78;99.99
68251;DHT22;55066;51.560;4.642;2024-01-16T07:03:07;-0.87;99.99
68251;DHT22;55066;51.560;4.642;2024-01-16T07:05:32;-0.87;99.99
68251;DHT22;55066;51.560;4.642;2024-01-16T07:07:58;-0.87;99.99
68251;DHT22;55066;51.560;4.642;2024-01-16T07:10:24;-0.84;99.99
68251;DHT22;55066;51.560;4.642;2024-01-16T07:12:50;-0.81;99.99
68251;DHT22;55066;51.560;4.642;2024-01-16T07:15:17;-0.77;99.99
68251;DHT22;55066;51.560;4.642;2024-01-16T07:17:43;-0.77;99.99
68251;DHT22;55066;51.560;4.642;2024-01-16T07:20:09;-0.74;99.99
68251;DHT22;55066;51.560;4.642;2024-01-16T07:22:36;-0.78;99.99
68251;DHT22;55066;51.560;4.642;2024-01-16T07:25:02;-0.75;99.99
68251;DHT22;55066;51.560;4.642;2024-01-16T07:27:27;-0.77;99.99
68251;DHT22;55066;51.560;4.642;2024-01-16T07:29:53;-0.81;99.99
68251;DHT22;55066;51.560;4.642;2024-01-16T07:32:18;-0.61;99.99
68251;DHT22;55066;51.560;4.642;2024-01-16T07:34:44;-0.49;99.99
68251;DHT22;55066;51.560;4.642;2024-01-16T07:37:09;-0.57;99.99
68251;DHT22;55066;51.560;4.642;2024-01-16T07:39:35;-0.53;99.99
68251;DHT22;55066;51.560;4.642;2024-01-16T07:42:00;-0.50;99.99
68251;DHT22;55066;51.560;4.642;2024-01-16T07:44:26;-0.53;99.99
68251;DHT22;55066;51.560;4.642;2024-01-16T07:46:51;-0.58;99.99
68251;DHT22;55066;51.560;4.642;2024-01-16T07:49:16;-0.61;99.99
68251;DHT22;55066;51.560;4.642;2024-01-16T07:51:42;-0.65;99.99
68251;DHT22;55066;51.560;4.642;2024-01-16T07:54:09;-0.64;99.99
68251;DHT22;55066;51.560;4.642;2024-01-16T07:56:35;-0.62;99.99
68251;DHT22;55066;51.560;4.642;2024-01-16T07:59:02;-0.67;99.99
68251;DHT22;55066;51.560;4.642;2024-01-16T08:01:28;-0.69;99.99
68251;DHT22;55066;51.560;4.642;2024-01-16T08:03:54;-0.65;99.99
68251;DHT22;55066;51.560;4.642;2024-01-16T08:06:20;-0.60;99.99
68251;DHT22;55066;51.560;4.642;2024-01-16T08:08:45;-0.53;99.99
68251;DHT22;55066;51.560;4.642;2024-01-16T08:11:12;-0.53;99.99
68251;DHT22;55066;51.560;4.642;2024-01-16T08:13:37;-0.49;99.99
68251;DHT22;55066;51.560;4.642;2024-01-16T08:16:03;-0.41;99.99
68251;DHT22;55066;51.560;4.642;2024-01-16T08:18:29;-0.34;99.99
68251;DHT22;55066;51.560;4.642;2024-01-16T08:20:57;-0.41;99.99
68251;DHT22;55066;51.560;4.642;2024-01-16T08:23:22;-0.40;99.99
68251;DHT22;55066;51.560;4.642;2024-01-16T08:25:48;-0.40;99.99
68251;DHT22;55066;51.560;4.642;2024-01-16T08:28:14;-0.37;99.99
68251;DHT22;55066;51.560;4.642;2024-01-16T08:30:40;-0.34;99.99
68251;DHT22;55066;51.560;4.642;2024-01-16T08:33:05;-0.30;99.99
68251;DHT22;55066;51.560;4.642;2024-01-16T08:35:31;-0.27;99.99
68251;DHT22;55066;51.560;4.642;2024-01-16T08:37:57;-0.29;99.99
68251;DHT22;55066;51.560;4.642;2024-01-16T08:40:22;-0.24;99.99
68251;DHT22;55066;51.560;4.642;2024-01-16T08:42:47;-0.29;99.99
68251;DHT22;55066;51.560;4.642;2024-01-16T08:45:17;-0.24;99.99
68251;DHT22;55066;51.560;4.642;2024-01-16T08:47:42;-0.17;99.99
68251;DHT22;55066;51.560;4.642;2024-01-16T08:50:08;-0.16;99.99
68251;DHT22;55066;51.560;4.642;2024-01-16T08:52:34;-0.22;99.99
68251;DHT22;55066;51.560;4.642;2024-01-16T08:55:01;-0.26;99.99
68251;DHT22;55066;51.560;4.642;2024-01-16T08:57:26;-0.17;99.99
68251;DHT22;55066;51.560;4.642;2024-01-16T08:59:52;-0.14;99.99
68251;DHT22;55066;51.560;4.642;2024-01-16T09:02:18;-0.14;99.99
68251;DHT22;55066;51.560;4.642;2024-01-16T09:04:45;-0.17;99.99
68251;DHT22;55066;51.560;4.642;2024-01-16T09:07:10;-0.19;99.99
68251;DHT22;55066;51.560;4.642;2024-01-16T09:09:37;-0.10;99.99
68251;DHT22;55066;51.560;4.642;2024-01-16T09:12:03;-0.03;99.99
68251;DHT22;55066;51.560;4.642;2024-01-16T09:14:28;-0.02;99.99
68251;DHT22;55066;51.560;4.642;2024-01-16T09:16:54;0.02;99.99
68251;DHT22;55066;51.560;4.642;2024-01-16T09:19:19;0.08;99.99
68251;DHT22;55066;51.560;4.642;2024-01-16T09:21:45;0.14;99.99
68251;DHT22;55066;51.560;4.642;2024-01-16T09:24:10;0.22;99.99
68251;DHT22;55066;51.560;4.642;2024-01-16T09:26:37;0.28;99.99
68251;DHT22;55066;51.560;4.642;2024-01-16T09:29:03;0.33;99.99
68251;DHT22;55066;51.560;4.642;2024-01-16T09:31:29;0.30;99.99
68251;DHT22;55066;51.560;4.642;2024-01-16T09:33:54;0.29;99.99
68251;DHT22;55066;51.560;4.642;2024-01-16T09:36:20;0.30;99.99
68251;DHT22;55066;51.560;4.642;2024-01-16T09:38:45;0.35;99.99
68251;DHT22;55066;51.560;4.642;2024-01-16T09:41:11;0.32;99.99
68251;DHT22;55066;51.560;4.642;2024-01-16T09:43:39;0.38;99.99
68251;DHT22;55066;51.560;4.642;2024-01-16T09:46:05;0.35;99.99
68251;DHT22;55066;51.560;4.642;2024-01-16T09:48:32;0.35;99.99
68251;DHT22;55066;51.560;4.642;2024-01-16T09:50:58;0.26;99.99
68251;DHT22;55066;51.560;4.642;2024-01-16T09:53:23;0.26;99.99
68251;DHT22;55066;51.560;4.642;2024-01-16T09:55:50;0.26;99.99
68251;DHT22;55066;51.560;4.642;2024-01-16T09:58:17;0.28;99.99
68251;DHT22;55066;51.560;4.642;2024-01-16T10:00:44;0.24;99.99
68251;DHT22;55066;51.560;4.642;2024-01-16T10:03:13;0.24;99.99
68251;DHT22;55066;51.560;4.642;2024-01-16T10:05:43;0.18;99.99
68251;DHT22;55066;51.560;4.642;2024-01-16T10:08:09;0.22;99.99
68251;DHT22;55066;51.560;4.642;2024-01-16T10:10:35;0.25;99.99
68251;DHT22;55066;51.560;4.642;2024-01-16T10:13:00;0.19;99.99
68251;DHT22;55066;51.560;4.642;2024-01-16T10:15:26;0.19;99.99
68251;DHT22;55066;51.560;4.642;2024-01-16T10:17:52;0.19;99.99
68251;DHT22;55066;51.560;4.642;2024-01-16T10:20:31;0.25;99.99
68251;DHT22;55066;51.560;4.642;2024-01-16T10:22:57;0.21;99.99
68251;DHT22;55066;51.560;4.642;2024-01-16T10:25:24;0.24;99.99
68251;DHT22;55066;51.560;4.642;2024-01-16T10:28:03;0.32;99.99
68251;DHT22;55066;51.560;4.642;2024-01-16T10:30:28;0.38;99.99
68251;DHT22;55066;51.560;4.642;2024-01-16T10:32:54;0.33;99.99
68251;DHT22;55066;51.560;4.642;2024-01-16T10:35:19;0.35;99.99
68251;DHT22;55066;51.560;4.642;2024-01-16T10:37:48;0.36;99.99
68251;DHT22;55066;51.560;4.642;2024-01-16T10:40:21;0.33;99.99
68251;DHT22;55066;51.560;4.642;2024-01-16T10:42:58;0.28;99.99
68251;DHT22;55066;51.560;4.642;2024-01-16T10:45:23;0.36;99.99
68251;DHT22;55066;51.560;4.642;2024-01-16T10:48:05;0.33;99.99
68251;DHT22;55066;51.560;4.642;2024-01-16T10:50:40;0.36;99.99
68251;DHT22;55066;51.560;4.642;2024-01-16T10:53:07;0.36;99.99
68251;DHT22;55066;51.560;4.642;2024-01-16T10:56:05;0.42;99.99
68251;DHT22;55066;51.560;4.642;2024-01-16T10:58:35;0.46;99.99
68251;DHT22;55066;51.560;4.642;2024-01-16T11:01:02;0.54;99.99
68251;DHT22;55066;51.560;4.642;2024-01-16T11:03:38;0.49;99.99
68251;DHT22;55066;51.560;4.642;2024-01-16T11:06:06;0.43;99.99
68251;DHT22;55066;51.560;4.642;2024-01-16T11:08:35;0.46;99.99
68251;DHT22;55066;51.560;4.642;2024-01-16T11:11:02;0.50;99.99
68251;DHT22;55066;51.560;4.642;2024-01-16T11:13:32;0.50;99.99
68251;DHT22;55066;51.560;4.642;2024-01-16T11:15:59;0.52;99.99
68251;DHT22;55066;51.560;4.642;2024-01-16T11:18:25;0.49;99.99
68251;DHT22;55066;51.560;4.642;2024-01-16T11:20:53;0.53;99.99
68251;DHT22;55066;51.560;4.642;2024-01-16T11:23:19;0.52;99.99
68251;DHT22;55066;51.560;4.642;2024-01-16T11:25:45;0.60;99.99
68251;DHT22;55066;51.560;4.642;2024-01-16T11:28:14;0.59;99.99
68251;DHT22;55066;51.560;4.642;2024-01-16T11:30:40;0.67;99.99
68251;DHT22;55066;51.560;4.642;2024-01-16T11:33:06;0.64;99.99
68251;DHT22;55066;51.560;4.642;2024-01-16T11:35:33;0.66;99.99
68251;DHT22;55066;51.560;4.642;2024-01-16T11:38:16;0.69;99.99
68251;DHT22;55066;51.560;4.642;2024-01-16T11:40:42;0.77;99.99
68251;DHT22;55066;51.560;4.642;2024-01-16T11:46:06;0.90;99.99
68251;DHT22;55066;51.560;4.642;2024-01-16T11:48:32;0.92;99.99
68251;DHT22;55066;51.560;4.642;2024-01-16T11:50:58;0.92;99.99
68251;DHT22;55066;51.560;4.642;2024-01-16T11:59:51;1.12;99.99
68251;DHT22;55066;51.560;4.642;2024-01-16T12:03:08;1.00;99.99
68251;DHT22;55066;51.560;4.642;2024-01-16T12:05:14;0.92;99.99
68251;DHT22;55066;51.560;4.642;2024-01-16T12:07:48;0.94;99.99
68251;DHT22;55066;51.560;4.642;2024-01-16T12:10:16;0.90;99.99
68251;DHT22;55066;51.560;4.642;2024-01-16T12:12:42;0.88;99.99
68251;DHT22;55066;51.560;4.642;2024-01-16T12:15:13;0.92;99.99
68251;DHT22;55066;51.560;4.642;2024-01-16T12:18:00;0.97;99.99
68251;DHT22;55066;51.560;4.642;2024-01-16T12:20:31;0.97;99.99
68251;DHT22;55066;51.560;4.642;2024-01-16T12:23:02;1.01;99.99
68251;DHT22;55066;51.560;4.642;2024-01-16T12:25:30;1.08;99.99
68251;DHT22;55066;51.560;4.642;2024-01-16T12:28:01;1.07;99.99
68251;DHT22;55066;51.560;4.642;2024-01-16T12:30:34;1.02;99.99
68251;DHT22;55066;51.560;4.642;2024-01-16T12:33:10;1.05;99.99
68251;DHT22;55066;51.560;4.642;2024-01-16T12:35:43;1.09;99.99
68251;DHT22;55066;51.560;4.642;2024-01-16T12:38:13;1.17;99.99
68251;DHT22;55066;51.560;4.642;2024-01-16T12:40:44;1.17;99.99
68251;DHT22;55066;51.560;4.642;2024-01-16T12:43:11;1.17;99.99
68251;DHT22;55066;51.560;4.642;2024-01-16T12:45:37;1.14;99.99
68251;DHT22;55066;51.560;4.642;2024-01-16T12:48:03;1.17;99.99
68251;DHT22;55066;51.560;4.642;2024-01-16T12:50:30;1.17;99.99
68251;DHT22;55066;51.560;4.642;2024-01-16T12:53:03;1.14;99.99
68251;DHT22;55066;51.560;4.642;2024-01-16T12:55:30;1.17;99.99
68251;DHT22;55066;51.560;4.642;2024-01-16T12:58:32;1.22;99.99
68251;DHT22;55066;51.560;4.642;2024-01-16T13:01:25;1.18;99.99
68251;DHT22;55066;51.560;4.642;2024-01-16T13:03:52;1.18;99.99
68251;DHT22;55066;51.560;4.642;2024-01-16T13:06:21;1.19;99.99
68251;DHT22;55066;51.560;4.642;2024-01-16T13:08:47;1.24;99.99
68251;DHT22;55066;51.560;4.642;2024-01-16T13:11:13;1.29;99.99
68251;DHT22;55066;51.560;4.642;2024-01-16T13:13:41;1.19;99.99
68251;DHT22;55066;51.560;4.642;2024-01-16T13:16:07;1.28;99.99
68251;DHT22;55066;51.560;4.642;2024-01-16T13:18:33;1.25;99.99
68251;DHT22;55066;51.560;4.642;2024-01-16T13:21:00;1.18;99.99
68251;DHT22;55066;51.560;4.642;2024-01-16T13:23:26;1.09;99.99
68251;DHT22;55066;51.560;4.642;2024-01-16T13:25:52;1.21;99.99
68251;DHT22;55066;51.560;4.642;2024-01-16T13:28:19;1.27;99.99
68251;DHT22;55066;51.560;4.642;2024-01-16T13:30:47;1.29;99.99
68251;DHT22;55066;51.560;4.642;2024-01-16T13:33:13;1.43;99.99
68251;DHT22;55066;51.560;4.642;2024-01-16T13:35:42;1.50;99.99
68251;DHT22;55066;51.560;4.642;2024-01-16T13:38:08;1.62;99.99
68251;DHT22;55066;51.560;4.642;2024-01-16T13:40:35;1.57;99.99
68251;DHT22;55066;51.560;4.642;2024-01-16T13:43:01;1.55;99.99
68251;DHT22;55066;51.560;4.642;2024-01-16T13:45:27;1.50;99.99
68251;DHT22;55066;51.560;4.642;2024-01-16T13:47:56;1.39;99.99
68251;DHT22;55066;51.560;4.642;2024-01-16T13:50:22;1.39;99.99
68251;DHT22;55066;51.560;4.642;2024-01-16T13:52:48;1.43;99.99
68251;DHT22;55066;51.560;4.642;2024-01-16T13:55:13;1.55;99.99
68251;DHT22;55066;51.560;4.642;2024-01-16T13:57:40;1.55;99.99
68251;DHT22;55066;51.560;4.642;2024-01-16T14:00:11;1.35;99.99
68251;DHT22;55066;51.560;4.642;2024-01-16T14:02:42;1.39;99.99
68251;DHT22;55066;51.560;4.642;2024-01-16T14:05:12;1.34;99.99
68251;DHT22;55066;51.560;4.642;2024-01-16T14:07:41;1.42;99.99
68251;DHT22;55066;51.560;4.642;2024-01-16T14:10:10;1.35;99.99
68251;DHT22;55066;51.560;4.642;2024-01-16T14:12:39;1.35;99.99
68251;DHT22;55066;51.560;4.642;2024-01-16T14:15:05;1.32;99.99
68251;DHT22;55066;51.560;4.642;2024-01-16T14:17:35;1.25;99.99
68251;DHT22;55066;51.560;4.642;2024-01-16T14:20:01;1.25;99.99
68251;DHT22;55066;51.560;4.642;2024-01-16T14:22:28;1.25;99.99
68251;DHT22;55066;51.560;4.642;2024-01-16T14:24:53;1.32;99.99
68251;DHT22;55066;51.560;4.642;2024-01-16T14:27:19;1.29;99.99
68251;DHT22;55066;51.560;4.642;2024-01-16T14:29:44;1.24;99.99
68251;DHT22;55066;51.560;4.642;2024-01-16T14:32:10;1.09;99.99
68251;DHT22;55066;51.560;4.642;2024-01-16T14:34:35;1.05;99.99
68251;DHT22;55066;51.560;4.642;2024-01-16T14:37:01;1.01;99.99
68251;DHT22;55066;51.560;4.642;2024-01-16T14:39:26;1.01;99.99
68251;DHT22;55066;51.560;4.642;2024-01-16T14:41:56;0.91;99.99
68251;DHT22;55066;51.560;4.642;2024-01-16T14:44:23;0.92;99.99
68251;DHT22;55066;51.560;4.642;2024-01-16T14:46:49;1.09;99.99
68251;DHT22;55066;51.560;4.642;2024-01-16T14:49:14;1.05;99.99
68251;DHT22;55066;51.560;4.642;2024-01-16T14:51:40;0.94;99.99
68251;DHT22;55066;51.560;4.642;2024-01-16T14:54:05;0.97;99.99
68251;DHT22;55066;51.560;4.642;2024-01-16T14:56:31;0.90;99.99
68251;DHT22;55066;51.560;4.642;2024-01-16T14:58:57;0.87;99.99
68251;DHT22;55066;51.560;4.642;2024-01-16T15:01:22;0.92;99.99
68251;DHT22;55066;51.560;4.642;2024-01-16T15:03:48;0.97;99.99
68251;DHT22;55066;51.560;4.642;2024-01-16T15:06:14;0.87;99.99
68251;DHT22;55066;51.560;4.642;2024-01-16T15:08:40;0.76;99.99
68251;DHT22;55066;51.560;4.642;2024-01-16T15:11:06;0.62;99.99
68251;DHT22;55066;51.560;4.642;2024-01-16T15:13:32;0.57;99.99
68251;DHT22;55066;51.560;4.642;2024-01-16T15:15:58;0.48;99.99
68251;DHT22;55066;51.560;4.642;2024-01-16T15:18:23;0.42;99.99
68251;DHT22;55066;51.560;4.642;2024-01-16T15:20:48;0.53;99.99
68251;DHT22;55066;51.560;4.642;2024-01-16T15:23:14;0.43;99.99
68251;DHT22;55066;51.560;4.642;2024-01-16T15:25:40;0.30;99.99
68251;DHT22;55066;51.560;4.642;2024-01-16T15:28:05;0.24;99.99
68251;DHT22;55066;51.560;4.642;2024-01-16T15:30:31;0.18;99.99
68251;DHT22;55066;51.560;4.642;2024-01-16T15:33:03;0.02;99.99
68251;DHT22;55066;51.560;4.642;2024-01-16T15:35:32;0.01;99.99
68251;DHT22;55066;51.560;4.642;2024-01-16T15:37:58;-0.09;99.99
68251;DHT22;55066;51.560;4.642;2024-01-16T15:40:23;-0.12;99.99
68251;DHT22;55066;51.560;4.642;2024-01-16T15:42:49;-0.19;99.99
68251;DHT22;55066;51.560;4.642;2024-01-16T15:45:14;-0.24;99.99
68251;DHT22;55066;51.560;4.642;2024-01-16T15:47:40;-0.29;99.99